sensor_id;sensor_type;location;lat;lon;timestamp;pressure;altitude;pressure_sealevel;temperature;humidity
20971;BME280;10644;48.834;10.088;2024-01-07T00:01:28;95968.63;;;8.57;66.51
20971;BME280;10644;48.834;10.088;2024-01-07T00:03:54;95978.41;;;8.65;66.46
20971;BME280;10644;48.834;10.088;2024-01-07T00:06:19;95977.06;;;8.59;66.75
20971;BME280;10644;48.834;10.088;2024-01-07T00:08:44;95981.50;;;8.56;66.73
20971;BME280;10644;48.834;10.088;2024-01-07T00:11:12;95981.72;;;8.67;66.46
20971;BME280;10644;48.834;10.088;2024-01-07T00:13:38;95983.50;;;8.65;66.48
20971;BME280;10644;48.834;10.088;2024-01-07T00:16:03;95981.59;;;8.54;66.37
20971;BME280;10644;48.834;10.088;2024-01-07T00:18:29;95989.03;;;8.43;66.83
20971;BME280;10644;48.834;10.088;2024-01-07T00:20:54;95984.16;;;8.25;67.72
20971;BME280;10644;48.834;10.088;2024-01-07T00:23:19;95989.03;;;8.43;66.86
20971;BME280;10644;48.834;10.088;2024-01-07T00:25:48;95982.88;;;8.61;66.23
20971;BME280;10644;48.834;10.088;2024-01-07T00:28:14;95985.28;;;8.78;66.28
20971;BME280;10644;48.834;10.088;2024-01-07T00:30:39;95983.28;;;8.83;65.65
20971;BME280;10644;48.834;10.088;2024-01-07T00:33:04;95986.00;;;8.66;65.64
20971;BME280;10644;48.834;10.088;2024-01-07T00:35:30;95985.78;;;8.55;66.77
20971;BME280;10644;48.834;10.088;2024-01-07T00:37:55;95979.00;;;8.40;66.83
20971;BME280;10644;48.834;10.088;2024-01-07T00:40:24;95990.94;;;8.40;66.63
20971;BME280;10644;48.834;10.088;2024-01-07T00:42:49;95985.41;;;8.47;66.80
20971;BME280;10644;48.834;10.088;2024-01-07T00:45:16;95982.22;;;8.58;66.63
20971;BME280;10644;48.834;10.088;2024-01-07T00:47:41;95982.16;;;8.73;65.90
20971;BME280;10644;48.834;10.088;2024-01-07T00:50:07;95989.06;;;8.57;66.28
20971;BME280;10644;48.834;10.088;2024-01-07T00:52:32;95984.88;;;8.56;66.22
20971;BME280;10644;48.834;10.088;2024-01-07T00:54:58;95990.88;;;8.41;66.47
20971;BME280;10644;48.834;10.088;2024-01-07T00:57:23;95982.81;;;8.33;67.22
20971;BME280;10644;48.834;10.088;2024-01-07T00:59:49;95992.53;;;8.56;66.75
20971;BME280;10644;48.834;10.088;2024-01-07T01:02:15;95990.09;;;8.69;66.08
20971;BME280;10644;48.834;10.088;2024-01-07T01:04:43;95990.56;;;8.75;66.32
20971;BME280;10644;48.834;10.088;2024-01-07T01:07:08;95992.16;;;8.48;66.29
20971;BME280;10644;48.834;10.088;2024-01-07T01:09:34;95995.63;;;8.47;66.86
20971;BME280;10644;48.834;10.088;2024-01-07T01:11:59;95996.91;;;8.54;66.44
20971;BME280;10644;48.834;10.088;2024-01-07T01:14:25;95994.72;;;8.62;65.91
20971;BME280;10644;48.834;10.088;2024-01-07T01:16:50;96012.44;;;8.65;65.99
20971;BME280;10644;48.834;10.088;2024-01-07T01:19:16;95996.84;;;8.40;66.51
20971;BME280;10644;48.834;10.088;2024-01-07T01:21:42;95998.31;;;8.30;67.08
20971;BME280;10644;48.834;10.088;2024-01-07T01:24:07;96003.06;;;8.21;67.58
20971;BME280;10644;48.834;10.088;2024-01-07T01:26:32;96005.78;;;8.18;67.54
20971;BME280;10644;48.834;10.088;2024-01-07T01:28:58;95994.91;;;8.30;67.16
20971;BME280;10644;48.834;10.088;2024-01-07T01:31:23;96015.81;;;8.36;66.75
20971;BME280;10644;48.834;10.088;2024-01-07T01:33:48;96011.13;;;8.58;66.69
20971;BME280;10644;48.834;10.088;2024-01-07T01:36:16;95993.16;;;8.60;65.83
20971;BME280;10644;48.834;10.088;2024-01-07T01:38:42;95996.56;;;8.74;65.38
20971;BME280;10644;48.834;10.088;2024-01-07T01:41:09;96001.13;;;8.69;65.85
20971;BME280;10644;48.834;10.088;2024-01-07T01:43:35;96001.50;;;8.77;65.24
20971;BME280;10644;48.834;10.088;2024-01-07T01:46:02;96005.34;;;8.70;65.81
20971;BME280;10644;48.834;10.088;2024-01-07T01:48:27;96000.75;;;8.61;65.80
20971;BME280;10644;48.834;10.088;2024-01-07T01:50:54;95992.22;;;8.76;65.46
20971;BME280;10644;48.834;10.088;2024-01-07T01:53:23;96005.34;;;8.84;65.03
20971;BME280;10644;48.834;10.088;2024-01-07T01:55:49;96006.41;;;8.66;65.80
20971;BME280;10644;48.834;10.088;2024-01-07T01:58:16;96004.69;;;8.67;65.60
20971;BME280;10644;48.834;10.088;2024-01-07T02:00:43;96005.91;;;8.75;65.46
20971;BME280;10644;48.834;10.088;2024-01-07T02:03:09;96005.91;;;8.75;65.53
20971;BME280;10644;48.834;10.088;2024-01-07T02:05:34;96000.78;;;8.75;65.36
20971;BME280;10644;48.834;10.088;2024-01-07T02:08:00;95995.69;;;8.75;65.62
20971;BME280;10644;48.834;10.088;2024-01-07T02:10:25;96000.59;;;8.78;65.07
20971;BME280;10644;48.834;10.088;2024-01-07T02:12:51;96004.69;;;8.81;65.17
20971;BME280;10644;48.834;10.088;2024-01-07T02:15:17;96009.53;;;8.71;65.58
20971;BME280;10644;48.834;10.088;2024-01-07T02:17:42;96009.75;;;8.53;65.66
20971;BME280;10644;48.834;10.088;2024-01-07T02:20:08;96002.50;;;8.31;66.35
20971;BME280;10644;48.834;10.088;2024-01-07T02:22:34;95999.25;;;8.43;66.31
20971;BME280;10644;48.834;10.088;2024-01-07T02:25:02;95997.81;;;8.53;66.07
20971;BME280;10644;48.834;10.088;2024-01-07T02:27:27;96006.69;;;8.32;65.77
20971;BME280;10644;48.834;10.088;2024-01-07T02:29:52;95999.03;;;8.32;66.39
20971;BME280;10644;48.834;10.088;2024-01-07T02:32:28;96007.03;;;8.26;66.39
20971;BME280;10644;48.834;10.088;2024-01-07T02:34:55;96005.53;;;8.22;66.74
20971;BME280;10644;48.834;10.088;2024-01-07T02:37:20;96000.94;;;8.29;66.39
20971;BME280;10644;48.834;10.088;2024-01-07T02:39:46;96008.53;;;8.44;66.36
20971;BME280;10644;48.834;10.088;2024-01-07T02:42:11;95989.03;;;8.43;66.11
20971;BME280;10644;48.834;10.088;2024-01-07T02:44:37;95999.28;;;8.12;66.76
20971;BME280;10644;48.834;10.088;2024-01-07T02:47:04;95993.47;;;7.64;68.12
20971;BME280;10644;48.834;10.088;2024-01-07T02:49:30;96004.56;;;7.78;68.32
20971;BME280;10644;48.834;10.088;2024-01-07T02:51:58;95997.09;;;7.75;68.09
20971;BME280;10644;48.834;10.088;2024-01-07T02:54:23;95998.34;;;7.68;68.28
20971;BME280;10644;48.834;10.088;2024-01-07T02:56:48;96002.44;;;7.86;68.31
20971;BME280;10644;48.834;10.088;2024-01-07T02:59:14;95989.41;;;8.06;67.44
20971;BME280;10644;48.834;10.088;2024-01-07T03:01:42;95996.19;;;8.23;66.93
20971;BME280;10644;48.834;10.088;2024-01-07T03:04:12;96008.31;;;8.18;67.27
20971;BME280;10644;48.834;10.088;2024-01-07T03:06:40;96004.03;;;8.18;66.78
20971;BME280;10644;48.834;10.088;2024-01-07T03:09:06;96010.13;;;8.31;66.44
20971;BME280;10644;48.834;10.088;2024-01-07T03:11:31;96015.16;;;8.33;66.78
20971;BME280;10644;48.834;10.088;2024-01-07T03:13:57;96010.19;;;8.45;66.57
20971;BME280;10644;48.834;10.088;2024-01-07T03:16:23;96014.34;;;8.17;66.47
20971;BME280;10644;48.834;10.088;2024-01-07T03:18:49;96015.84;;;7.74;67.84
20971;BME280;10644;48.834;10.088;2024-01-07T03:21:23;96008.38;;;7.71;68.45
20971;BME280;10644;48.834;10.088;2024-01-07T03:23:50;96011.16;;;7.82;67.74
20971;BME280;10644;48.834;10.088;2024-01-07T03:26:19;96017.91;;;7.68;68.06
20971;BME280;10644;48.834;10.088;2024-01-07T03:28:45;96015.59;;;7.79;68.14
20971;BME280;10644;48.834;10.088;2024-01-07T03:31:18;96017.31;;;7.78;68.01
20971;BME280;10644;48.834;10.088;2024-01-07T03:33:50;96018.53;;;7.87;67.65
20971;BME280;10644;48.834;10.088;2024-01-07T03:36:15;96019.06;;;7.78;67.75
20971;BME280;10644;48.834;10.088;2024-01-07T03:38:41;96017.75;;;7.86;67.54
20971;BME280;10644;48.834;10.088;2024-01-07T03:41:06;96009.25;;;8.01;67.58
20971;BME280;10644;48.834;10.088;2024-01-07T03:43:32;96011.47;;;8.07;66.84
20971;BME280;10644;48.834;10.088;2024-01-07T03:46:00;96019.84;;;8.09;66.47
20971;BME280;10644;48.834;10.088;2024-01-07T03:48:26;96023.25;;;8.25;66.96
20971;BME280;10644;48.834;10.088;2024-01-07T03:50:51;96023.97;;;8.27;66.68
20971;BME280;10644;48.834;10.088;2024-01-07T03:53:17;96026.09;;;8.19;65.95
20971;BME280;10644;48.834;10.088;2024-01-07T03:55:42;96016.25;;;8.13;66.70
20971;BME280;10644;48.834;10.088;2024-01-07T03:58:08;96017.03;;;8.14;66.33
20971;BME280;10644;48.834;10.088;2024-01-07T04:00:34;96028.91;;;7.99;67.05
20971;BME280;10644;48.834;10.088;2024-01-07T04:03:00;96020.34;;;8.00;66.56
20971;BME280;10644;48.834;10.088;2024-01-07T04:05:26;96026.44;;;8.13;66.78
20971;BME280;10644;48.834;10.088;2024-01-07T04:07:51;96027.44;;;8.26;66.49
20971;BME280;10644;48.834;10.088;2024-01-07T04:10:17;96028.66;;;8.19;66.68
20971;BME280;10644;48.834;10.088;2024-01-07T04:12:42;96031.47;;;7.99;66.95
20971;BME280;10644;48.834;10.088;2024-01-07T04:15:08;96037.44;;;8.14;66.86
20971;BME280;10644;48.834;10.088;2024-01-07T04:17:34;96033.69;;;8.21;66.14
20971;BME280;10644;48.834;10.088;2024-01-07T04:19:59;96034.34;;;8.24;66.53
20971;BME280;10644;48.834;10.088;2024-01-07T04:22:25;96042.22;;;8.35;66.59
20971;BME280;10644;48.834;10.088;2024-01-07T04:24:50;96037.28;;;8.32;66.48
20971;BME280;10644;48.834;10.088;2024-01-07T04:27:15;96026.53;;;8.27;65.99
20971;BME280;10644;48.834;10.088;2024-01-07T04:29:41;96043.25;;;8.47;65.94
20971;BME280;10644;48.834;10.088;2024-01-07T04:32:06;96039.34;;;8.41;66.26
20971;BME280;10644;48.834;10.088;2024-01-07T04:34:31;96053.00;;;8.25;65.61
20971;BME280;10644;48.834;10.088;2024-01-07T04:36:57;96048.47;;;8.14;66.75
20971;BME280;10644;48.834;10.088;2024-01-07T04:39:22;96047.38;;;8.18;66.99
20971;BME280;10644;48.834;10.088;2024-01-07T04:41:48;96045.84;;;8.31;66.25
20971;BME280;10644;48.834;10.088;2024-01-07T04:44:13;96049.06;;;8.35;66.36
20971;BME280;10644;48.834;10.088;2024-01-07T04:46:39;96056.41;;;8.25;66.40
20971;BME280;10644;48.834;10.088;2024-01-07T04:49:07;96058.69;;;8.30;66.14
20971;BME280;10644;48.834;10.088;2024-01-07T04:51:33;96059.06;;;8.38;66.39
20971;BME280;10644;48.834;10.088;2024-01-07T04:53:58;96063.53;;;8.50;65.86
20971;BME280;10644;48.834;10.088;2024-01-07T04:56:24;96068.56;;;8.36;65.67
20971;BME280;10644;48.834;10.088;2024-01-07T04:58:49;96062.56;;;8.21;66.08
20971;BME280;10644;48.834;10.088;2024-01-07T05:01:14;96058.09;;;8.09;65.97
20971;BME280;10644;48.834;10.088;2024-01-07T05:03:40;96066.75;;;7.91;66.92
20971;BME280;10644;48.834;10.088;2024-01-07T05:06:08;96062.66;;;7.89;67.13
20971;BME280;10644;48.834;10.088;2024-01-07T05:08:35;96077.03;;;7.74;67.52
20971;BME280;10644;48.834;10.088;2024-01-07T05:11:00;96067.88;;;7.70;67.51
20971;BME280;10644;48.834;10.088;2024-01-07T05:13:28;96077.75;;;7.76;67.64
20971;BME280;10644;48.834;10.088;2024-01-07T05:15:56;96076.00;;;7.61;68.28
20971;BME280;10644;48.834;10.088;2024-01-07T05:18:24;96078.16;;;7.84;67.22
20971;BME280;10644;48.834;10.088;2024-01-07T05:20:50;96086.16;;;7.94;67.69
20971;BME280;10644;48.834;10.088;2024-01-07T05:23:15;96090.56;;;7.90;68.02
20971;BME280;10644;48.834;10.088;2024-01-07T05:25:45;96091.81;;;7.83;67.04
20971;BME280;10644;48.834;10.088;2024-01-07T05:28:11;96088.94;;;7.89;67.03
20971;BME280;10644;48.834;10.088;2024-01-07T05:30:37;96086.97;;;7.79;68.08
20971;BME280;10644;48.834;10.088;2024-01-07T05:33:03;96089.94;;;8.02;66.92
20971;BME280;10644;48.834;10.088;2024-01-07T05:35:28;96099.81;;;8.08;66.90
20971;BME280;10644;48.834;10.088;2024-01-07T05:37:53;96102.25;;;7.79;66.86
20971;BME280;10644;48.834;10.088;2024-01-07T05:40:19;96105.78;;;7.76;66.67
20971;BME280;10644;48.834;10.088;2024-01-07T05:42:44;96094.78;;;7.43;67.57
20971;BME280;10644;48.834;10.088;2024-01-07T05:45:09;96102.69;;;7.39;68.14
20971;BME280;10644;48.834;10.088;2024-01-07T05:47:35;96102.63;;;7.56;67.88
20971;BME280;10644;48.834;10.088;2024-01-07T05:50:00;96107.06;;;7.52;67.50
20971;BME280;10644;48.834;10.088;2024-01-07T05:52:26;96108.88;;;7.33;68.31
20971;BME280;10644;48.834;10.088;2024-01-07T05:54:52;96109.97;;;7.29;68.33
20971;BME280;10644;48.834;10.088;2024-01-07T05:57:17;96107.13;;;7.18;68.32
20971;BME280;10644;48.834;10.088;2024-01-07T05:59:45;96116.91;;;7.43;68.30
20971;BME280;10644;48.834;10.088;2024-01-07T06:02:13;96116.34;;;7.53;66.92
20971;BME280;10644;48.834;10.088;2024-01-07T06:04:38;96117.97;;;7.39;67.78
20971;BME280;10644;48.834;10.088;2024-01-07T06:07:04;96117.84;;;7.57;67.35
20971;BME280;10644;48.834;10.088;2024-01-07T06:09:29;96117.41;;;7.17;67.36
20971;BME280;10644;48.834;10.088;2024-01-07T06:11:55;96119.13;;;6.99;68.52
20971;BME280;10644;48.834;10.088;2024-01-07T06:14:22;96110.88;;;6.94;68.03
20971;BME280;10644;48.834;10.088;2024-01-07T06:16:47;96123.03;;;6.89;69.00
20971;BME280;10644;48.834;10.088;2024-01-07T06:19:12;96121.81;;;7.13;68.61
20971;BME280;10644;48.834;10.088;2024-01-07T06:21:39;96123.44;;;7.31;67.97
20971;BME280;10644;48.834;10.088;2024-01-07T06:24:07;96128.41;;;7.34;66.85
20971;BME280;10644;48.834;10.088;2024-01-07T06:26:33;96132.13;;;6.93;68.51
20971;BME280;10644;48.834;10.088;2024-01-07T06:28:58;96119.72;;;6.87;68.28
20971;BME280;10644;48.834;10.088;2024-01-07T06:31:23;96136.78;;;6.68;68.81
20971;BME280;10644;48.834;10.088;2024-01-07T06:33:49;96142.19;;;6.79;68.94
20971;BME280;10644;48.834;10.088;2024-01-07T06:36:14;96140.84;;;6.72;68.89
20971;BME280;10644;48.834;10.088;2024-01-07T06:38:39;96150.41;;;6.84;68.76
20971;BME280;10644;48.834;10.088;2024-01-07T06:41:04;96137.72;;;6.49;69.05
20971;BME280;10644;48.834;10.088;2024-01-07T06:43:33;96158.75;;;6.52;69.45
20971;BME280;10644;48.834;10.088;2024-01-07T06:45:58;96160.59;;;6.49;69.35
20971;BME280;10644;48.834;10.088;2024-01-07T06:48:24;96168.63;;;6.58;68.95
20971;BME280;10644;48.834;10.088;2024-01-07T06:50:49;96155.97;;;6.57;69.25
20971;BME280;10644;48.834;10.088;2024-01-07T06:53:14;96170.16;;;6.62;68.73
20971;BME280;10644;48.834;10.088;2024-01-07T06:55:41;96163.31;;;6.27;69.18
20971;BME280;10644;48.834;10.088;2024-01-07T06:58:07;96180.22;;;6.28;69.32
20971;BME280;10644;48.834;10.088;2024-01-07T07:00:32;96176.63;;;6.32;69.18
20971;BME280;10644;48.834;10.088;2024-01-07T07:02:57;96182.00;;;6.26;69.50
20971;BME280;10644;48.834;10.088;2024-01-07T07:05:22;96190.69;;;6.22;69.99
20971;BME280;10644;48.834;10.088;2024-01-07T07:07:48;96181.88;;;6.29;69.85
20971;BME280;10644;48.834;10.088;2024-01-07T07:10:13;96186.25;;;6.44;69.39
20971;BME280;10644;48.834;10.088;2024-01-07T07:12:38;96190.13;;;6.34;68.79
20971;BME280;10644;48.834;10.088;2024-01-07T07:15:04;96196.28;;;6.29;69.08
20971;BME280;10644;48.834;10.088;2024-01-07T07:17:29;96183.22;;;6.36;68.47
20971;BME280;10644;48.834;10.088;2024-01-07T07:19:55;96204.13;;;6.43;67.35
20971;BME280;10644;48.834;10.088;2024-01-07T07:22:22;96186.78;;;6.32;67.96
20971;BME280;10644;48.834;10.088;2024-01-07T07:24:48;96193.91;;;6.44;67.06
20971;BME280;10644;48.834;10.088;2024-01-07T07:27:13;96198.44;;;6.19;67.51
20971;BME280;10644;48.834;10.088;2024-01-07T07:29:41;96211.56;;;6.10;67.66
20971;BME280;10644;48.834;10.088;2024-01-07T07:32:06;96214.34;;;6.04;67.36
20971;BME280;10644;48.834;10.088;2024-01-07T07:34:32;96217.25;;;6.34;66.68
20971;BME280;10644;48.834;10.088;2024-01-07T07:36:57;96217.31;;;6.32;66.54
20971;BME280;10644;48.834;10.088;2024-01-07T07:39:25;96218.13;;;6.14;66.39
20971;BME280;10644;48.834;10.088;2024-01-07T07:41:50;96227.59;;;5.92;66.73
20971;BME280;10644;48.834;10.088;2024-01-07T07:44:16;96234.78;;;6.03;66.76
20971;BME280;10644;48.834;10.088;2024-01-07T07:46:43;96230.34;;;5.88;65.85
20971;BME280;10644;48.834;10.088;2024-01-07T07:49:09;96227.75;;;5.89;66.86
20971;BME280;10644;48.834;10.088;2024-01-07T07:51:34;96234.09;;;5.99;66.03
20971;BME280;10644;48.834;10.088;2024-01-07T07:53:59;96235.81;;;6.17;65.48
20971;BME280;10644;48.834;10.088;2024-01-07T07:56:25;96232.84;;;6.26;65.40
20971;BME280;10644;48.834;10.088;2024-01-07T07:58:50;96239.06;;;6.39;64.17
20971;BME280;10644;48.834;10.088;2024-01-07T08:01:17;96245.97;;;6.17;64.34
20971;BME280;10644;48.834;10.088;2024-01-07T08:03:45;96248.16;;;6.06;64.80
20971;BME280;10644;48.834;10.088;2024-01-07T08:06:10;96254.78;;;5.90;64.77
20971;BME280;10644;48.834;10.088;2024-01-07T08:08:36;96253.00;;;5.72;65.26
20971;BME280;10644;48.834;10.088;2024-01-07T08:11:01;96250.97;;;6.00;64.71
20971;BME280;10644;48.834;10.088;2024-01-07T08:13:27;96247.56;;;5.81;64.75
20971;BME280;10644;48.834;10.088;2024-01-07T08:15:52;96256.81;;;5.62;65.51
20971;BME280;10644;48.834;10.088;2024-01-07T08:18:17;96258.94;;;5.31;65.47
20971;BME280;10644;48.834;10.088;2024-01-07T08:20:43;96260.63;;;5.52;65.41
20971;BME280;10644;48.834;10.088;2024-01-07T08:23:08;96266.91;;;5.44;65.36
20971;BME280;10644;48.834;10.088;2024-01-07T08:25:33;96265.06;;;5.67;65.54
20971;BME280;10644;48.834;10.088;2024-01-07T08:27:59;96269.41;;;6.05;64.58
20971;BME280;10644;48.834;10.088;2024-01-07T08:30:24;96272.00;;;6.04;64.27
20971;BME280;10644;48.834;10.088;2024-01-07T08:32:50;96266.25;;;5.79;64.83
20971;BME280;10644;48.834;10.088;2024-01-07T08:35:15;96279.78;;;5.39;64.80
20971;BME280;10644;48.834;10.088;2024-01-07T08:37:40;96279.44;;;5.27;66.13
20971;BME280;10644;48.834;10.088;2024-01-07T08:40:06;96289.34;;;5.13;66.03
20971;BME280;10644;48.834;10.088;2024-01-07T08:42:35;96275.84;;;5.32;66.38
20971;BME280;10644;48.834;10.088;2024-01-07T08:45:00;96288.00;;;5.46;65.42
20971;BME280;10644;48.834;10.088;2024-01-07T08:47:26;96296.72;;;5.39;65.35
20971;BME280;10644;48.834;10.088;2024-01-07T08:49:51;96295.63;;;5.24;65.68
20971;BME280;10644;48.834;10.088;2024-01-07T08:52:19;96306.41;;;4.86;66.83
20971;BME280;10644;48.834;10.088;2024-01-07T08:54:44;96307.59;;;4.78;66.49
20971;BME280;10644;48.834;10.088;2024-01-07T08:57:10;96294.66;;;5.07;66.44
20971;BME280;10644;48.834;10.088;2024-01-07T08:59:35;96304.63;;;5.31;65.88
20971;BME280;10644;48.834;10.088;2024-01-07T09:02:01;96292.81;;;5.52;64.53
20971;BME280;10644;48.834;10.088;2024-01-07T09:04:27;96312.22;;;5.11;65.63
20971;BME280;10644;48.834;10.088;2024-01-07T09:06:52;96312.50;;;5.25;65.63
20971;BME280;10644;48.834;10.088;2024-01-07T09:09:18;96305.50;;;5.10;65.93
20971;BME280;10644;48.834;10.088;2024-01-07T09:11:43;96313.88;;;5.12;65.85
20971;BME280;10644;48.834;10.088;2024-01-07T09:14:08;96312.84;;;4.95;66.03
20971;BME280;10644;48.834;10.088;2024-01-07T09:16:34;96305.19;;;4.96;66.33
20971;BME280;10644;48.834;10.088;2024-01-07T09:18:59;96323.78;;;4.97;66.43
20971;BME280;10644;48.834;10.088;2024-01-07T09:21:24;96311.41;;;4.89;66.73
20971;BME280;10644;48.834;10.088;2024-01-07T09:23:50;96314.72;;;5.13;65.86
20971;BME280;10644;48.834;10.088;2024-01-07T09:26:16;96323.72;;;5.20;65.39
20971;BME280;10644;48.834;10.088;2024-01-07T09:28:41;96323.25;;;5.10;65.29
20971;BME280;10644;48.834;10.088;2024-01-07T09:31:08;96312.31;;;5.08;65.44
20971;BME280;10644;48.834;10.088;2024-01-07T09:33:34;96321.97;;;5.00;65.71
20971;BME280;10644;48.834;10.088;2024-01-07T09:36:00;96325.31;;;5.22;65.03
20971;BME280;10644;48.834;10.088;2024-01-07T09:38:25;96329.22;;;5.09;64.92
20971;BME280;10644;48.834;10.088;2024-01-07T09:40:51;96338.06;;;4.99;65.70
20971;BME280;10644;48.834;10.088;2024-01-07T09:43:17;96328.97;;;4.94;65.93
20971;BME280;10644;48.834;10.088;2024-01-07T09:45:46;96341.25;;;5.26;65.38
20971;BME280;10644;48.834;10.088;2024-01-07T09:48:13;96339.59;;;5.46;64.27
20971;BME280;10644;48.834;10.088;2024-01-07T09:50:38;96345.09;;;5.36;63.73
20971;BME280;10644;48.834;10.088;2024-01-07T09:53:04;96347.41;;;5.20;63.91
20971;BME280;10644;48.834;10.088;2024-01-07T09:55:39;96339.56;;;5.26;64.49
20971;BME280;10644;48.834;10.088;2024-01-07T09:58:07;96346.56;;;5.63;64.09
20971;BME280;10644;48.834;10.088;2024-01-07T10:00:33;96351.59;;;5.43;63.88
20971;BME280;10644;48.834;10.088;2024-01-07T10:02:58;96342.19;;;5.45;63.64
20971;BME280;10644;48.834;10.088;2024-01-07T10:05:24;96347.28;;;5.23;63.64
20971;BME280;10644;48.834;10.088;2024-01-07T10:07:49;96351.34;;;5.27;63.83
20971;BME280;10644;48.834;10.088;2024-01-07T10:10:16;96348.59;;;5.12;64.54
20971;BME280;10644;48.834;10.088;2024-01-07T10:12:46;96356.94;;;5.35;64.35
20971;BME280;10644;48.834;10.088;2024-01-07T10:15:12;96356.69;;;5.21;64.03
20971;BME280;10644;48.834;10.088;2024-01-07T10:17:37;96354.00;;;5.03;64.54
20971;BME280;10644;48.834;10.088;2024-01-07T10:20:05;96353.59;;;4.92;65.01
20971;BME280;10644;48.834;10.088;2024-01-07T10:22:35;96360.22;;;4.73;66.23
20971;BME280;10644;48.834;10.088;2024-01-07T10:25:00;96356.59;;;5.01;65.89
20971;BME280;10644;48.834;10.088;2024-01-07T10:27:25;96348.59;;;5.33;65.04
20971;BME280;10644;48.834;10.088;2024-01-07T10:29:51;96346.44;;;5.01;65.36
20971;BME280;10644;48.834;10.088;2024-01-07T10:32:19;96356.97;;;4.92;65.40
20971;BME280;10644;48.834;10.088;2024-01-07T10:36:05;96358.84;;;4.87;65.99
20971;BME280;10644;48.834;10.088;2024-01-07T10:38:32;96364.56;;;4.69;65.69
20971;BME280;10644;48.834;10.088;2024-01-07T10:41:01;96364.13;;;4.58;66.05
20971;BME280;10644;48.834;10.088;2024-01-07T10:43:29;96363.06;;;4.87;65.34
20971;BME280;10644;48.834;10.088;2024-01-07T10:45:55;96365.13;;;4.77;65.29
20971;BME280;10644;48.834;10.088;2024-01-07T10:48:25;96370.28;;;4.74;65.42
20971;BME280;10644;48.834;10.088;2024-01-07T10:50:55;96360.94;;;4.76;65.66
20971;BME280;10644;48.834;10.088;2024-01-07T10:53:24;96358.41;;;4.53;65.53
20971;BME280;10644;48.834;10.088;2024-01-07T10:56:00;96361.38;;;4.64;65.98
20971;BME280;10644;48.834;10.088;2024-01-07T10:58:25;96364.09;;;5.04;64.98
20971;BME280;10644;48.834;10.088;2024-01-07T11:00:54;96355.41;;;5.31;64.90
20971;BME280;10644;48.834;10.088;2024-01-07T11:06:02;96355.56;;;5.48;62.96
20971;BME280;10644;48.834;10.088;2024-01-07T11:08:52;96355.53;;;5.28;63.20
20971;BME280;10644;48.834;10.088;2024-01-07T11:11:25;96348.94;;;5.24;63.46
20971;BME280;10644;48.834;10.088;2024-01-07T11:13:51;96361.09;;;5.16;63.01
20971;BME280;10644;48.834;10.088;2024-01-07T11:16:43;96357.31;;;5.26;63.62
20971;BME280;10644;48.834;10.088;2024-01-07T11:19:09;96359.44;;;5.15;64.23
20971;BME280;10644;48.834;10.088;2024-01-07T11:21:37;96353.91;;;4.83;64.96
20971;BME280;10644;48.834;10.088;2024-01-07T11:24:03;96360.94;;;4.76;66.06
20971;BME280;10644;48.834;10.088;2024-01-07T11:26:29;96360.75;;;4.81;65.75
20971;BME280;10644;48.834;10.088;2024-01-07T11:28:56;96357.75;;;4.93;65.39
20971;BME280;10644;48.834;10.088;2024-01-07T11:31:55;96363.91;;;4.87;65.34
20971;BME280;10644;48.834;10.088;2024-01-07T11:37:05;96360.44;;;4.67;66.19
20971;BME280;10644;48.834;10.088;2024-01-07T11:39:33;96370.47;;;4.47;66.97
20971;BME280;10644;48.834;10.088;2024-01-07T11:42:02;96364.19;;;4.57;66.30
20971;BME280;10644;48.834;10.088;2024-01-07T11:44:28;96369.81;;;4.42;67.37
20971;BME280;10644;48.834;10.088;2024-01-07T11:46:53;96365.00;;;4.57;66.37
20971;BME280;10644;48.834;10.088;2024-01-07T11:49:19;96373.25;;;4.39;67.72
20971;BME280;10644;48.834;10.088;2024-01-07T11:51:46;96369.09;;;4.38;67.61
20971;BME280;10644;48.834;10.088;2024-01-07T11:54:12;96375.09;;;4.59;66.72
20971;BME280;10644;48.834;10.088;2024-01-07T11:56:37;96370.38;;;4.73;65.96
20971;BME280;10644;48.834;10.088;2024-01-07T11:59:03;96375.00;;;4.62;66.36
20971;BME280;10644;48.834;10.088;2024-01-07T12:01:29;96381.22;;;4.76;66.01
20971;BME280;10644;48.834;10.088;2024-01-07T12:03:54;96387.47;;;4.68;65.75
20971;BME280;10644;48.834;10.088;2024-01-07T12:06:20;96382.22;;;4.49;66.06
20971;BME280;10644;48.834;10.088;2024-01-07T12:08:45;96383.63;;;4.79;66.30
20971;BME280;10644;48.834;10.088;2024-01-07T12:11:12;96385.91;;;4.87;65.13
20971;BME280;10644;48.834;10.088;2024-01-07T12:13:38;96385.50;;;4.51;65.92
20971;BME280;10644;48.834;10.088;2024-01-07T12:16:08;96389.38;;;4.61;65.53
20971;BME280;10644;48.834;10.088;2024-01-07T12:18:36;96381.28;;;4.52;65.75
20971;BME280;10644;48.834;10.088;2024-01-07T12:21:01;96386.94;;;4.58;65.75
20971;BME280;10644;48.834;10.088;2024-01-07T12:23:27;96383.28;;;4.67;65.64
20971;BME280;10644;48.834;10.088;2024-01-07T12:25:53;96388.84;;;4.53;65.25
20971;BME280;10644;48.834;10.088;2024-01-07T12:28:19;96390.59;;;4.27;66.35
20971;BME280;10644;48.834;10.088;2024-01-07T12:30:45;96398.94;;;4.30;67.26
20971;BME280;10644;48.834;10.088;2024-01-07T12:33:19;96404.28;;;4.23;67.08
20971;BME280;10644;48.834;10.088;2024-01-07T12:35:47;96396.41;;;4.30;66.35
20971;BME280;10644;48.834;10.088;2024-01-07T12:38:13;96409.19;;;4.27;66.45
20971;BME280;10644;48.834;10.088;2024-01-07T12:40:38;96409.03;;;3.55;68.06
20971;BME280;10644;48.834;10.088;2024-01-07T12:43:04;96408.16;;;3.56;68.12
20971;BME280;10644;48.834;10.088;2024-01-07T12:45:34;96401.84;;;3.69;67.89
20971;BME280;10644;48.834;10.088;2024-01-07T12:48:02;96414.59;;;3.66;67.04
20971;BME280;10644;48.834;10.088;2024-01-07T12:50:28;96412.38;;;3.82;67.18
20971;BME280;10644;48.834;10.088;2024-01-07T12:52:55;96418.84;;;3.66;67.38
20971;BME280;10644;48.834;10.088;2024-01-07T12:55:24;96413.63;;;3.70;67.68
20971;BME280;10644;48.834;10.088;2024-01-07T12:57:50;96412.09;;;3.65;67.42
20971;BME280;10644;48.834;10.088;2024-01-07T13:00:16;96416.44;;;3.87;67.08
20971;BME280;10644;48.834;10.088;2024-01-07T13:02:42;96422.41;;;3.86;67.12